createdAt,value
2023-01-20T00:01:49.078Z,70.82
2023-01-20T00:04:20.620Z,70.98
2023-01-20T00:06:49.315Z,70.88
2023-01-20T00:09:18.939Z,70.80
2023-01-20T00:11:47.616Z,70.57
2023-01-20T00:14:16.341Z,70.33
2023-01-20T00:16:44.605Z,70.20
2023-01-20T00:19:14.721Z,70.13
2023-01-20T00:21:43.657Z,70.12
2023-01-20T00:24:12.113Z,70.35
2023-01-20T00:26:40.260Z,70.24
2023-01-20T00:29:09.474Z,70.23
2023-01-20T00:31:38.658Z,70.21
2023-01-20T00:34:06.960Z,70.00
2023-01-20T00:36:35.657Z,69.75
2023-01-20T00:39:05.122Z,69.53
2023-01-20T00:41:33.352Z,69.40
2023-01-20T00:44:01.832Z,69.51
2023-01-20T00:46:30.604Z,69.82
2023-01-20T00:48:58.803Z,69.77
2023-01-20T00:51:26.983Z,69.79
2023-01-20T00:53:56.093Z,69.79
2023-01-20T00:56:25.339Z,69.80
2023-01-20T00:58:55.617Z,69.83
2023-01-20T01:01:24.268Z,69.78
2023-01-20T01:03:54.590Z,70.03
2023-01-20T01:06:23.958Z,69.98
2023-01-20T01:08:53.202Z,70.09
2023-01-20T01:11:21.448Z,70.26
2023-01-20T01:13:49.652Z,70.35
2023-01-20T01:16:18.042Z,70.39
2023-01-20T01:18:46.481Z,70.60
2023-01-20T01:21:17.415Z,70.87
2023-01-20T01:23:45.701Z,71.11
2023-01-20T01:26:14.599Z,71.31
2023-01-20T01:28:43.194Z,71.67
2023-01-20T01:31:11.862Z,71.89
2023-01-20T01:33:40.671Z,71.93
2023-01-20T01:36:13.948Z,72.01
2023-01-20T01:38:42.595Z,72.02
2023-01-20T01:41:13.551Z,72.18
2023-01-20T01:44:05.625Z,72.29
2023-01-20T01:46:35.418Z,72.12
2023-01-20T01:49:10.442Z,72.19
2023-01-20T01:51:46.914Z,72.30
2023-01-20T01:54:24.948Z,72.18
2023-01-20T01:56:54.213Z,72.08
2023-01-20T01:59:22.644Z,71.80
2023-01-20T02:01:52.711Z,71.64
2023-01-20T02:04:24.907Z,71.80
2023-01-20T02:07:19.817Z,71.51
2023-01-20T02:09:48.411Z,71.19
2023-01-20T02:12:20.992Z,71.38
2023-01-20T02:14:53.135Z,71.21
2023-01-20T02:17:30.449Z,71.24
2023-01-20T02:20:07.943Z,71.54
2023-01-20T02:22:42.159Z,71.36
2023-01-20T02:25:10.444Z,71.21
2023-01-20T02:28:16.998Z,71.44
2023-01-20T02:31:07.589Z,71.73
2023-01-20T02:34:05.140Z,71.87
2023-01-20T02:36:36.492Z,72.08
2023-01-20T02:39:13.777Z,72.11
2023-01-20T02:41:56.090Z,72.21
2023-01-20T02:44:29.582Z,72.41
2023-01-20T02:47:06.972Z,72.49
2023-01-20T02:49:50.910Z,72.83
2023-01-20T02:52:24.928Z,72.84
2023-01-20T02:54:57.604Z,73.36
2023-01-20T02:57:31.108Z,73.52
2023-01-20T03:00:07.988Z,73.76
2023-01-20T03:02:40.279Z,74.00
2023-01-20T03:05:14.656Z,74.05
2023-01-20T03:07:44.884Z,74.22
2023-01-20T03:10:18.880Z,74.54
2023-01-20T03:12:50.270Z,74.34
2023-01-20T03:15:24.800Z,74.61
2023-01-20T03:17:53.078Z,74.77
2023-01-20T03:20:21.258Z,74.83
2023-01-20T03:22:50.063Z,74.68
2023-01-20T03:25:20.475Z,74.94
2023-01-20T03:27:49.581Z,74.82
2023-01-20T03:30:18.442Z,74.65
2023-01-20T03:32:50.075Z,74.72
2023-01-20T03:35:19.069Z,75.18
2023-01-20T03:37:47.529Z,75.67
2023-01-20T03:40:16.375Z,75.59
2023-01-20T03:42:57.604Z,76.12
2023-01-20T03:45:59.709Z,76.22
2023-01-20T03:49:01.385Z,76.06
2023-01-20T03:51:41.242Z,75.98
2023-01-20T03:54:12.788Z,75.90
2023-01-20T03:56:43.836Z,76.16
2023-01-20T03:59:14.791Z,76.25
2023-01-20T04:01:45.301Z,76.21
2023-01-20T04:04:19.867Z,76.46
2023-01-20T04:06:51.296Z,76.77
2023-01-20T04:09:29.278Z,77.09
2023-01-20T04:11:58.915Z,77.10
2023-01-20T04:14:27.190Z,76.96
2023-01-20T04:16:59.324Z,76.71
2023-01-20T04:19:27.641Z,76.99
2023-01-20T04:22:17.820Z,77.11
2023-01-20T04:24:58.537Z,77.44
2023-01-20T04:27:26.970Z,78.35
2023-01-20T04:29:55.485Z,78.33
2023-01-20T04:32:24.153Z,78.90
2023-01-20T04:34:53.657Z,78.68
2023-01-20T04:37:22.059Z,78.69
2023-01-20T04:39:50.232Z,78.63
2023-01-20T04:42:18.402Z,78.83
2023-01-20T04:44:46.994Z,79.35
2023-01-20T04:47:15.273Z,79.55
2023-01-20T04:49:43.557Z,79.43
2023-01-20T04:52:11.953Z,79.73
2023-01-20T04:54:40.425Z,80.26
2023-01-20T04:57:08.916Z,80.49
2023-01-20T04:59:37.406Z,80.60
2023-01-20T05:02:05.809Z,80.02
2023-01-20T05:04:34.169Z,79.82
2023-01-20T05:07:02.556Z,79.57
2023-01-20T05:09:30.835Z,79.47
2023-01-20T05:11:59.833Z,79.27
2023-01-20T05:14:28.229Z,79.26
2023-01-20T05:16:56.701Z,79.03
2023-01-20T05:19:25.089Z,79.07
2023-01-20T05:21:53.268Z,79.30
2023-01-20T05:24:21.857Z,79.39
2023-01-20T05:26:50.444Z,79.30
2023-01-20T05:29:18.935Z,79.47
2023-01-20T05:31:47.394Z,79.84
2023-01-20T05:34:16.828Z,79.85
2023-01-20T05:36:45.214Z,80.20
2023-01-20T05:39:13.287Z,80.41
2023-01-20T05:41:41.979Z,80.03
2023-01-20T05:44:10.365Z,80.07
2023-01-20T05:46:39.113Z,80.25
2023-01-20T05:49:07.642Z,80.55
2023-01-20T05:51:36.028Z,81.15
2023-01-20T05:54:04.707Z,81.17
2023-01-20T05:56:33.106Z,81.59
2023-01-20T05:59:02.271Z,81.67
2023-01-20T06:01:30.526Z,81.92
2023-01-20T06:03:58.886Z,81.95
2023-01-20T06:06:27.253Z,82.26
2023-01-20T06:08:55.537Z,82.27
2023-01-20T06:11:24.148Z,82.33
2023-01-20T06:13:52.482Z,82.62
2023-01-20T06:16:21.246Z,82.56
2023-01-20T06:18:49.486Z,82.72
2023-01-20T06:21:17.870Z,82.91
2023-01-20T06:23:46.260Z,82.91
2023-01-20T06:26:15.153Z,83.16
2023-01-20T06:28:45.305Z,83.34
2023-01-20T06:31:16.814Z,83.60
2023-01-20T06:33:45.241Z,83.56
2023-01-20T06:36:15.958Z,83.77
2023-01-20T06:38:48.659Z,83.74
2023-01-20T06:41:19.368Z,83.83
2023-01-20T06:43:47.959Z,83.77
2023-01-20T06:46:16.834Z,83.64
2023-01-20T06:48:46.161Z,83.65
2023-01-20T06:51:20.302Z,83.82
2023-01-20T06:53:48.666Z,83.81
2023-01-20T06:56:17.556Z,83.73
2023-01-20T06:58:46.262Z,83.83
2023-01-20T07:01:26.425Z,83.73
2023-01-20T07:03:56.091Z,83.37
2023-01-20T07:06:38.499Z,83.22
2023-01-20T07:09:15.708Z,82.88
2023-01-20T07:11:44.710Z,82.73
2023-01-20T07:14:13.088Z,82.72
2023-01-20T07:16:41.300Z,82.55
2023-01-20T07:19:09.858Z,82.41
2023-01-20T07:21:38.140Z,82.26
2023-01-20T07:24:06.991Z,81.78
2023-01-20T07:26:35.526Z,81.68
2023-01-20T07:29:04.219Z,81.15
2023-01-20T07:31:34.501Z,81.05
2023-01-20T07:34:03.280Z,80.81
2023-01-20T07:36:31.864Z,80.43
2023-01-20T07:39:00.135Z,80.11
2023-01-20T07:41:28.386Z,79.81
2023-01-20T07:43:56.980Z,79.50
2023-01-20T07:46:25.463Z,79.49
2023-01-20T07:48:53.652Z,79.15
2023-01-20T07:51:21.931Z,78.80
2023-01-20T07:53:52.186Z,78.73
2023-01-20T07:56:23.439Z,78.71
2023-01-20T07:58:53.758Z,78.45
2023-01-20T08:01:24.931Z,78.49
2023-01-20T08:03:53.972Z,78.58
2023-01-20T08:06:25.018Z,78.60
2023-01-20T08:08:54.405Z,78.46
2023-01-20T08:11:23.019Z,78.38
2023-01-20T08:13:51.820Z,78.12
2023-01-20T08:16:20.311Z,78.07
2023-01-20T08:18:49.769Z,77.95
2023-01-20T08:21:24.331Z,77.80
2023-01-20T08:23:55.798Z,77.61
2023-01-20T08:26:25.356Z,77.39
2023-01-20T08:28:54.509Z,77.38
2023-01-20T08:31:24.924Z,77.02
2023-01-20T08:33:55.044Z,76.98
2023-01-20T08:36:29.985Z,76.63
2023-01-20T08:39:02.806Z,76.34
2023-01-20T08:41:34.431Z,76.02
2023-01-20T08:44:06.502Z,75.74
2023-01-20T08:46:36.015Z,74.57
2023-01-20T08:49:16.994Z,73.47
2023-01-20T08:51:45.405Z,72.94
2023-01-20T08:54:15.112Z,71.42
2023-01-20T08:56:43.477Z,69.37
2023-01-20T08:59:12.489Z,69.22
2023-01-20T09:01:42.312Z,66.80
2023-01-20T09:04:11.176Z,65.14
2023-01-20T09:06:40.800Z,65.38
2023-01-20T09:09:09.661Z,62.89
2023-01-20T09:11:39.965Z,60.48
2023-01-20T09:14:08.403Z,61.24
2023-01-20T09:16:36.684Z,59.15
2023-01-20T09:19:04.959Z,55.30
2023-01-20T09:21:33.252Z,55.61
2023-01-20T09:24:01.424Z,55.13
2023-01-20T09:26:38.483Z,53.91
2023-01-20T09:29:10.886Z,52.32
2023-01-20T09:31:44.675Z,52.96
2023-01-20T09:34:19.651Z,50.63
2023-01-20T09:36:53.331Z,51.51
2023-01-20T09:39:40.954Z,50.01
2023-01-20T09:42:51.742Z,49.09
2023-01-20T09:45:25.734Z,46.95
2023-01-20T09:48:15.197Z,48.17
2023-01-20T09:51:16.005Z,46.78
2023-01-20T09:53:44.387Z,43.71
2023-01-20T09:56:17.089Z,41.84
2023-01-20T09:58:53.544Z,42.66
2023-01-20T10:01:43.910Z,42.25
2023-01-20T10:04:12.417Z,43.45
2023-01-20T10:06:46.229Z,44.79
2023-01-20T10:09:42.138Z,45.00
2023-01-20T10:12:18.677Z,45.07
2023-01-20T10:14:55.290Z,45.27
2023-01-20T10:17:39.214Z,45.90
2023-01-20T10:20:10.740Z,46.73
2023-01-20T10:22:41.818Z,47.38
2023-01-20T10:25:17.671Z,47.95
2023-01-20T10:28:19.206Z,48.61
2023-01-20T10:30:48.519Z,48.88
2023-01-20T10:33:29.243Z,49.26
2023-01-20T10:36:00.024Z,50.05
2023-01-20T10:38:54.093Z,50.74
2023-01-20T10:41:33.647Z,51.04
2023-01-20T10:44:04.366Z,51.51
2023-01-20T10:46:51.859Z,51.74
2023-01-20T10:49:40.186Z,52.22
2023-01-20T10:52:40.127Z,51.54
2023-01-20T10:55:50.273Z,51.31
2023-01-20T10:58:25.720Z,50.74
2023-01-20T11:00:55.518Z,50.70
2023-01-20T11:03:25.636Z,51.33
2023-01-20T11:05:54.455Z,51.58
2023-01-20T11:08:27.442Z,51.90
2023-01-20T11:11:00.330Z,52.53
2023-01-20T11:13:28.526Z,52.76
2023-01-20T11:16:02.756Z,53.02
2023-01-20T11:18:32.227Z,53.32
2023-01-20T11:21:10.137Z,53.63
2023-01-20T11:23:53.455Z,53.92
2023-01-20T11:26:33.430Z,54.26
2023-01-20T11:29:29.098Z,54.44
2023-01-20T11:31:59.838Z,54.55
2023-01-20T11:34:48.610Z,54.73
2023-01-20T11:37:25.777Z,54.34
2023-01-20T11:40:00.770Z,54.13
2023-01-20T11:42:45.064Z,54.13
2023-01-20T11:45:27.265Z,53.93
2023-01-20T11:48:03.430Z,53.84
2023-01-20T11:51:02.099Z,54.08
2023-01-20T11:53:32.838Z,53.74
2023-01-20T11:56:06.059Z,53.82
2023-01-20T11:58:51.639Z,53.88
2023-01-20T12:01:24.954Z,54.01
2023-01-20T12:04:31.521Z,54.20
2023-01-20T12:07:05.678Z,54.21
2023-01-20T12:09:42.128Z,54.16
2023-01-20T12:12:13.405Z,54.14
2023-01-20T12:15:15.550Z,54.21
2023-01-20T12:17:56.319Z,54.62
2023-01-20T12:20:53.173Z,54.50
2023-01-20T12:23:46.081Z,53.86
2023-01-20T12:26:17.354Z,53.64
2023-01-20T12:29:02.619Z,53.40
2023-01-20T12:31:32.846Z,53.00
2023-01-20T12:34:05.524Z,51.93
2023-01-20T12:37:02.255Z,51.16
2023-01-20T12:40:09.013Z,51.51
2023-01-20T12:43:03.389Z,50.47
2023-01-20T12:45:47.535Z,51.33
2023-01-20T12:48:28.093Z,50.92
2023-01-20T12:51:24.119Z,50.51
2023-01-20T12:54:48.249Z,50.27
2023-01-20T12:57:45.098Z,51.20
2023-01-20T13:00:32.417Z,51.14
2023-01-20T13:03:38.971Z,51.49
2023-01-20T13:06:37.876Z,51.79
2023-01-20T13:09:31.100Z,51.64
2023-01-20T13:12:24.387Z,52.04
2023-01-20T13:15:02.971Z,52.32
2023-01-20T13:17:34.032Z,52.42
2023-01-20T13:20:04.990Z,52.57
2023-01-20T13:22:34.621Z,52.61
2023-01-20T13:25:05.110Z,52.85
2023-01-20T13:27:37.788Z,53.05
2023-01-20T13:30:08.517Z,53.31
2023-01-20T13:32:43.317Z,53.62
2023-01-20T13:35:18.002Z,53.75
2023-01-20T13:38:01.775Z,53.88
2023-01-20T13:40:33.003Z,53.96
2023-01-20T13:43:02.380Z,54.23
2023-01-20T13:45:30.762Z,54.40
2023-01-20T13:48:08.558Z,54.47
2023-01-20T13:50:42.234Z,54.68
2023-01-20T13:53:10.545Z,54.86
2023-01-20T13:55:44.220Z,55.18
2023-01-20T13:58:33.713Z,55.27
2023-01-20T14:01:05.301Z,55.34
2023-01-20T14:03:37.952Z,55.61
2023-01-20T14:06:12.181Z,55.81
2023-01-20T14:08:43.906Z,55.98
2023-01-20T14:11:13.654Z,56.31
2023-01-20T14:13:51.019Z,56.48
2023-01-20T14:16:23.092Z,56.68
2023-01-20T14:18:54.763Z,56.74
2023-01-20T14:21:26.491Z,57.17
2023-01-20T14:23:54.815Z,57.26
2023-01-20T14:26:27.595Z,57.60
2023-01-20T14:28:58.947Z,57.90
2023-01-20T14:31:45.645Z,58.16
2023-01-20T14:34:26.827Z,58.25
2023-01-20T14:37:01.374Z,58.42
2023-01-20T14:39:30.611Z,58.46
2023-01-20T14:42:00.989Z,58.65
2023-01-20T14:44:35.322Z,58.86
2023-01-20T14:47:04.507Z,58.78
2023-01-20T14:49:36.570Z,58.80
2023-01-20T14:52:12.527Z,58.96
2023-01-20T14:54:46.957Z,58.96
2023-01-20T14:57:20.559Z,57.95
2023-01-20T14:59:59.687Z,58.54
2023-01-20T15:02:33.549Z,59.51
2023-01-20T15:05:02.672Z,60.51
2023-01-20T15:07:30.932Z,61.10
2023-01-20T15:10:10.015Z,61.89
2023-01-20T15:12:51.999Z,62.06
2023-01-20T15:15:23.043Z,62.49
2023-01-20T15:18:09.543Z,62.68
2023-01-20T15:20:41.331Z,62.71
2023-01-20T15:23:35.783Z,62.89
2023-01-20T15:26:23.819Z,62.95
2023-01-20T15:28:52.509Z,63.10
2023-01-20T15:31:21.307Z,63.48
2023-01-20T15:33:50.557Z,63.44
2023-01-20T15:36:30.149Z,63.73
2023-01-20T15:38:58.735Z,64.01
2023-01-20T15:41:27.231Z,64.56
2023-01-20T15:43:55.709Z,65.23
2023-01-20T15:46:25.113Z,65.49
2023-01-20T15:48:53.497Z,66.27
2023-01-20T15:51:21.681Z,66.37
2023-01-20T15:53:49.856Z,67.21
2023-01-20T15:56:25.523Z,67.49
2023-01-20T15:58:54.504Z,67.50
2023-01-20T16:01:26.816Z,68.34
2023-01-20T16:03:58.230Z,69.23
2023-01-20T16:06:34.439Z,69.20
2023-01-20T16:09:13.520Z,68.92
2023-01-20T16:11:44.873Z,69.06
2023-01-20T16:14:13.153Z,69.67
2023-01-20T16:16:41.336Z,69.60
2023-01-20T16:19:13.615Z,69.80
2023-01-20T16:21:44.432Z,69.40
2023-01-20T16:24:14.161Z,69.08
2023-01-20T16:26:45.962Z,68.84
2023-01-20T16:29:14.315Z,68.90
2023-01-20T16:31:42.657Z,68.85
2023-01-20T16:34:10.871Z,69.01
2023-01-20T16:36:39.260Z,68.70
2023-01-20T16:39:07.439Z,68.99
2023-01-20T16:41:36.901Z,68.80
2023-01-20T16:44:05.848Z,69.03
2023-01-20T16:46:34.739Z,68.81
2023-01-20T16:49:03.877Z,68.96
2023-01-20T16:51:32.941Z,69.15
2023-01-20T16:54:01.119Z,68.95
2023-01-20T16:56:31.960Z,69.23
2023-01-20T16:59:02.159Z,68.93
2023-01-20T17:01:30.820Z,69.53
2023-01-20T17:04:01.732Z,69.59
2023-01-20T17:06:34.043Z,69.85
2023-01-20T17:09:05.628Z,70.54
2023-01-20T17:11:36.707Z,70.18
2023-01-20T17:14:07.684Z,70.39
2023-01-20T17:16:37.301Z,70.26
2023-01-20T17:19:05.973Z,70.44
2023-01-20T17:21:38.641Z,70.73
2023-01-20T17:24:07.775Z,70.78
2023-01-20T17:26:38.061Z,70.63
2023-01-20T17:29:07.366Z,70.55
2023-01-20T17:31:37.125Z,70.66
2023-01-20T17:34:06.965Z,70.39
2023-01-20T17:36:35.230Z,70.30
2023-01-20T17:39:05.511Z,70.35
2023-01-20T17:41:34.634Z,70.22
2023-01-20T17:44:04.470Z,69.93
2023-01-20T17:46:32.931Z,69.58
2023-01-20T17:49:04.827Z,69.77
2023-01-20T17:51:34.686Z,69.44
2023-01-20T17:54:04.089Z,69.57
2023-01-20T17:56:32.991Z,69.44
2023-01-20T17:59:02.402Z,69.36
2023-01-20T18:01:32.897Z,69.12
2023-01-20T18:04:04.456Z,69.17
2023-01-20T18:06:36.482Z,69.25
2023-01-20T18:09:07.397Z,69.41
2023-01-20T18:11:37.474Z,69.88
2023-01-20T18:14:07.157Z,69.83
2023-01-20T18:16:38.447Z,70.04
2023-01-20T18:19:06.971Z,70.24
2023-01-20T18:21:37.473Z,70.57
2023-01-20T18:24:07.664Z,70.92
2023-01-20T18:26:38.757Z,71.34
2023-01-20T18:29:12.404Z,71.69
2023-01-20T18:31:40.942Z,72.47
2023-01-20T18:34:11.917Z,73.00
2023-01-20T18:36:42.039Z,73.06
2023-01-20T18:39:22.816Z,73.09
2023-01-20T18:41:52.205Z,73.03
2023-01-20T18:44:23.462Z,73.75
2023-01-20T18:46:51.947Z,73.49
2023-01-20T18:49:20.231Z,73.45
2023-01-20T18:51:48.519Z,73.64
2023-01-20T18:54:20.993Z,73.67
2023-01-20T18:56:49.476Z,73.82
2023-01-20T18:59:18.177Z,73.75
2023-01-20T19:01:46.557Z,73.52
2023-01-20T19:04:15.450Z,73.50
2023-01-20T19:06:45.499Z,73.15
2023-01-20T19:09:16.311Z,73.06
2023-01-20T19:11:44.795Z,72.90
2023-01-20T19:14:15.099Z,72.65
2023-01-20T19:16:49.173Z,72.56
2023-01-20T19:19:19.387Z,71.71
2023-01-20T19:21:52.069Z,71.22
2023-01-20T19:24:21.987Z,71.21
2023-01-20T19:26:50.351Z,71.06
2023-01-20T19:29:19.858Z,70.84
2023-01-20T19:31:49.396Z,70.77
2023-01-20T19:34:17.857Z,70.51
2023-01-20T19:36:46.246Z,70.35
2023-01-20T19:39:14.629Z,70.59
2023-01-20T19:41:44.041Z,70.56
2023-01-20T19:44:13.775Z,70.67
2023-01-20T19:46:42.215Z,71.08
2023-01-20T19:49:12.305Z,71.33
2023-01-20T19:51:40.642Z,71.36
2023-01-20T19:54:13.211Z,71.77
2023-01-20T19:56:41.815Z,71.76
2023-01-20T19:59:12.557Z,72.05
2023-01-20T20:01:40.820Z,72.00
2023-01-20T20:04:12.852Z,71.98
2023-01-20T20:06:48.085Z,72.26
2023-01-20T20:09:20.336Z,72.43
2023-01-20T20:11:49.622Z,72.68
2023-01-20T20:14:20.056Z,72.71
2023-01-20T20:16:49.203Z,72.73
2023-01-20T20:19:19.470Z,72.94
2023-01-20T20:21:48.260Z,73.04
2023-01-20T20:24:18.306Z,72.91
2023-01-20T20:26:47.442Z,72.77
2023-01-20T20:29:18.685Z,72.57
2023-01-20T20:31:47.457Z,72.43
2023-01-20T20:34:18.712Z,72.30
2023-01-20T20:36:47.211Z,72.29
2023-01-20T20:39:17.823Z,72.29
2023-01-20T20:41:46.836Z,72.28
2023-01-20T20:44:15.291Z,72.10
2023-01-20T20:46:44.280Z,71.99
2023-01-20T20:49:19.220Z,71.92
2023-01-20T20:51:47.837Z,71.84
2023-01-20T20:54:17.314Z,71.79
2023-01-20T20:56:46.116Z,71.19
2023-01-20T20:59:15.482Z,71.17
2023-01-20T21:01:43.664Z,71.02
2023-01-20T21:04:12.513Z,70.97
2023-01-20T21:06:40.988Z,70.83
2023-01-20T21:09:09.647Z,71.09
2023-01-20T21:11:38.643Z,71.09
2023-01-20T21:14:07.678Z,71.19
2023-01-20T21:16:36.054Z,71.26
2023-01-20T21:19:05.424Z,71.25
2023-01-20T21:21:34.669Z,71.28
2023-01-20T21:24:03.155Z,71.25
2023-01-20T21:26:31.644Z,71.29
2023-01-20T21:29:04.060Z,71.21
2023-01-20T21:31:34.668Z,71.23
2023-01-20T21:34:03.819Z,71.52
2023-01-20T21:36:32.471Z,71.60
2023-01-20T21:39:00.833Z,71.63
2023-01-20T21:41:29.826Z,72.43
2023-01-20T21:44:16.834Z,72.74
2023-01-20T21:46:45.768Z,73.00
2023-01-20T21:49:32.663Z,73.34
2023-01-20T21:52:19.546Z,73.52
2023-01-20T21:54:48.028Z,73.98
2023-01-20T21:57:16.529Z,74.09
2023-01-20T21:59:46.141Z,74.29
2023-01-20T22:02:15.317Z,74.59
2023-01-20T22:04:44.128Z,75.07
2023-01-20T22:07:13.635Z,75.60
2023-01-20T22:09:42.229Z,75.78
2023-01-20T22:12:11.388Z,75.39
2023-01-20T22:14:39.815Z,75.58
2023-01-20T22:17:09.945Z,75.72
2023-01-20T22:19:38.813Z,75.91
2023-01-20T22:22:07.890Z,76.14
2023-01-20T22:24:36.951Z,76.25
2023-01-20T22:27:05.528Z,76.11
2023-01-20T22:29:33.902Z,76.15
2023-01-20T22:32:04.235Z,76.38
2023-01-20T22:34:32.416Z,76.86
2023-01-20T22:37:01.012Z,77.25
2023-01-20T22:39:29.491Z,77.86
2023-01-20T22:41:57.683Z,78.06
2023-01-20T22:44:26.160Z,78.06
2023-01-20T22:46:54.945Z,78.29
2023-01-20T22:49:23.345Z,78.81
2023-01-20T22:51:54.430Z,79.18
2023-01-20T22:54:22.773Z,80.14
2023-01-20T22:56:51.246Z,80.23
2023-01-20T22:59:19.634Z,79.94
2023-01-20T23:01:48.016Z,80.06
2023-01-20T23:04:16.505Z,79.88
2023-01-20T23:06:45.398Z,79.63
2023-01-20T23:09:14.741Z,79.86
2023-01-20T23:11:43.201Z,79.70
2023-01-20T23:14:13.711Z,79.80
2023-01-20T23:16:43.416Z,79.93
2023-01-20T23:19:11.933Z,79.97
2023-01-20T23:21:40.940Z,80.23
2023-01-20T23:24:10.331Z,81.62
2023-01-20T23:26:38.918Z,81.17
2023-01-20T23:29:07.465Z,81.64
2023-01-20T23:31:35.931Z,81.73
2023-01-20T23:34:04.585Z,81.54
2023-01-20T23:36:33.181Z,81.54
2023-01-20T23:39:01.579Z,81.55
2023-01-20T23:41:29.946Z,81.38
2023-01-20T23:43:58.437Z,81.20
2023-01-20T23:46:26.918Z,81.41
2023-01-20T23:48:55.514Z,81.36
2023-01-20T23:51:23.969Z,81.10
2023-01-20T23:53:52.383Z,80.92
2023-01-20T23:56:22.711Z,80.89
2023-01-20T23:58:52.337Z,80.82
